Time;durP1;ratioP1;P1;durP2;ratioP2;P2;SDS_P1;SDS_P2;PMS_P1;PMS_P2;Temp;Humidity;BMP_temperature;BMP_pressure;BME280_temperature;BME280_humidity;BME280_pressure;Samples;Min_cycle;Max_cycle;Signal;HPM_P1;HPM_P2
2022/01/30 00:00:47;;;;;;;;;;;8.60;99.90;;;6.73;98.91;101454.00;5041405;28;19929;-85
2022/01/30 00:03:14;;;;;;;;;;;8.60;99.90;;;6.67;99.32;101444.59;5049530;28;19932;-85
2022/01/30 00:05:41;;;;;;;;;;;8.60;99.90;;;6.69;99.17;101453.44;5049668;28;19929;-85
2022/01/30 00:08:08;;;;;;;;;;;8.60;99.90;;;6.77;99.08;101452.75;5049035;28;19970;-86
2022/01/30 00:10:38;;;;;;;;;;;8.60;99.90;;;6.74;99.23;101445.78;5049521;28;19971;-85
2022/01/30 00:13:08;;;;;;;;;;;8.60;99.90;;;6.71;99.02;101439.78;5046638;28;19929;-85
2022/01/30 00:15:40;;;;;;;;;;;8.80;99.90;;;6.72;98.93;101452.28;5052975;28;19989;-86
2022/01/30 00:18:18;;;;;;;;;;;8.60;99.90;;;6.65;99.56;101455.53;5057812;28;19936;-86
2022/01/30 00:20:58;;;;;;;;;;;8.60;99.90;;;6.59;99.44;101452.53;5049299;28;19935;-85
2022/01/30 00:23:27;;;;;;;;;;;8.60;99.90;;;6.54;99.16;101477.28;5049312;28;20021;-85
2022/01/30 00:25:56;;;;;;;;;;;8.50;99.90;;;6.53;99.58;101464.75;5049261;28;19929;-85
2022/01/30 00:28:27;;;;;;;;;;;8.50;99.90;;;6.49;98.50;101467.84;5048993;28;19933;-85
2022/01/30 00:30:55;;;;;;;;;;;8.50;99.90;;;6.46;98.74;101474.41;5049196;28;20023;-86
2022/01/30 00:33:23;;;;;;;;;;;8.50;99.90;;;6.33;98.75;101471.91;5049263;28;19956;-86
2022/01/30 00:35:50;;;;;;;;;;;8.40;99.90;;;6.46;99.08;101482.50;5050411;28;20001;-86
2022/01/30 00:38:22;;;;;;;;;;;8.40;99.90;;;6.46;98.96;101485.22;5052269;28;20012;-86
2022/01/30 00:40:50;;;;;;;;;;;8.40;99.90;;;6.44;98.47;101485.34;5052034;28;19953;-85
2022/01/30 00:43:18;;;;;;;;;;;8.40;99.90;;;6.41;98.92;101487.44;5053048;28;19929;-85
2022/01/30 00:45:46;;;;;;;;;;;8.40;99.90;;;6.46;98.58;101486.06;5051952;28;20651;-85
2022/01/30 00:48:13;;;;;;;;;;;8.40;99.90;;;6.46;97.89;101485.22;5051058;28;20023;-86
2022/01/30 00:50:41;;;;;;;;;;;8.40;99.90;;;6.42;97.76;101486.47;5043468;28;19968;-86
2022/01/30 00:53:08;;;;;;;;;;;8.40;99.90;;;6.40;97.86;101488.47;5051436;28;19952;-85
2022/01/30 00:55:36;;;;;;;;;;;8.40;99.90;;;6.34;98.19;101497.94;5051696;28;20263;-85
2022/01/30 00:58:03;;;;;;;;;;;8.30;99.90;;;6.32;98.59;101490.94;5052566;28;19939;-84
2022/01/30 01:00:31;;;;;;;;;;;8.30;99.90;;;6.33;98.42;101489.97;5079837;22;19967;-85
2022/01/30 01:02:58;;;;;;;;;;;8.30;99.90;;;6.41;98.58;101498.25;5072647;28;19925;-85
2022/01/30 01:05:25;;;;;;;;;;;8.30;99.90;;;6.25;97.79;101499.59;5066500;28;19971;-85
2022/01/30 01:07:56;;;;;;;;;;;8.30;99.90;;;6.16;98.44;101497.69;5069894;28;19928;-85
2022/01/30 01:10:32;;;;;;;;;;;8.20;99.90;;;6.18;98.48;101501.09;5061673;28;20419;-85
2022/01/30 01:13:14;;;;;;;;;;;8.20;99.90;;;6.17;98.51;101502.09;5051522;28;19982;-85
2022/01/30 01:24:10;;;;;;;;;;;8.20;99.90;;;6.27;99.54;101499.47;4962146;28;19930;-85
2022/01/30 01:26:38;;;;;;;;;;;8.20;99.90;;;6.36;99.74;101495.09;5016780;28;20316;-85
2022/01/30 01:29:06;;;;;;;;;;;8.20;99.90;;;6.38;99.12;101488.59;5052147;28;19929;-85
2022/01/30 01:31:33;;;;;;;;;;;8.20;99.90;;;6.32;98.80;101486.41;5052144;28;19931;-85
2022/01/30 01:34:18;;;;;;;;;;;8.20;99.90;;;6.31;98.60;101489.25;5051055;28;19948;-85
2022/01/30 01:36:45;;;;;;;;;;;8.20;99.90;;;6.25;98.32;101480.66;5049958;28;20389;-85
2022/01/30 01:39:14;;;;;;;;;;;8.20;99.90;;;6.15;98.88;101484.28;5057614;28;19929;-85
2022/01/30 01:41:41;;;;;;;;;;;8.20;99.90;;;6.18;98.80;101487.59;5049508;28;19929;-84
2022/01/30 01:44:15;;;;;;;;;;;8.20;99.90;;;6.20;99.07;101480.19;5050586;28;19928;-85
2022/01/30 01:46:43;;;;;;;;;;;8.20;99.90;;;6.11;98.18;101481.03;5051736;28;19960;-84
2022/01/30 01:49:18;;;;;;;;;;;8.10;99.90;;;6.03;99.15;101476.25;5050276;28;19925;-85
2022/01/30 01:51:49;;;;;;;;;;;8.10;99.90;;;5.98;99.21;101477.66;5051301;28;19951;-85
2022/01/30 01:54:18;;;;;;;;;;;8.10;99.90;;;6.05;98.83;101473.41;5052048;28;19935;-85
2022/01/30 01:56:45;;;;;;;;;;;8.10;99.90;;;6.01;99.06;101480.91;5043641;28;20385;-85
2022/01/30 01:59:24;;;;;;;;;;;8.10;99.90;;;5.97;99.85;101481.31;5055260;28;19925;-85
2022/01/30 02:02:11;;;;;;;;;;;8.10;99.90;;;5.90;99.73;101488.19;5031806;28;19937;-85
2022/01/30 02:04:40;;;;;;;;;;;8.00;99.90;;;5.86;99.53;101493.88;5030470;28;19933;-85
2022/01/30 02:09:59;;;;;;;;;;;8.00;99.90;;;5.87;99.73;101506.38;5041058;28;19933;-84
2022/01/30 02:12:33;;;;;;;;;;;7.90;99.90;;;5.86;99.68;101514.63;5048617;28;20688;-84
2022/01/30 02:15:15;;;;;;;;;;;7.90;99.90;;;5.74;99.69;101515.66;5059069;28;19964;-85
2022/01/30 02:26:02;;;;;;;;;;;7.80;99.90;;;5.67;99.33;101526.09;5051182;28;19924;-85
2022/01/30 02:28:33;;;;;;;;;;;7.80;99.90;;;5.53;99.82;101531.81;5049439;28;19925;-84
2022/01/30 02:31:05;;;;;;;;;;;7.80;99.90;;;5.54;100.00;101538.91;5048119;28;19924;-85
2022/01/30 02:33:34;;;;;;;;;;;7.80;99.90;;;5.56;100.00;101529.72;5058221;28;19955;-84
2022/01/30 02:36:01;;;;;;;;;;;7.70;99.90;;;5.59;100.00;101540.25;5048227;28;19925;-85
2022/01/30 02:38:29;;;;;;;;;;;7.70;99.90;;;5.61;100.00;101549.06;5049490;28;19936;-85
2022/01/30 02:40:58;;;;;;;;;;;7.70;99.90;;;5.52;100.00;101538.19;5050743;28;20014;-85
2022/01/30 02:43:30;;;;;;;;;;;7.70;99.90;;;5.45;100.00;101540.53;5083076;28;19932;-85
2022/01/30 02:46:06;;;;;;;;;;;7.70;99.90;;;5.34;100.00;101543.25;5049397;28;20514;-85
2022/01/30 02:48:49;;;;;;;;;;;7.60;99.90;;;5.34;100.00;101549.50;5047219;28;20011;-85
2022/01/30 02:51:19;;;;;;;;;;;7.60;99.90;;;5.38;100.00;101552.81;5043068;28;19956;-84
2022/01/30 02:53:55;;;;;;;;;;;7.60;99.90;;;5.42;100.00;101552.44;5048964;28;19932;-84
2022/01/30 02:56:23;;;;;;;;;;;7.60;99.90;;;5.44;100.00;101553.16;5050547;28;20391;-84
2022/01/30 02:58:50;;;;;;;;;;;7.60;99.90;;;5.42;100.00;101555.13;5048881;28;20381;-85
2022/01/30 03:01:17;;;;;;;;;;;7.60;99.90;;;5.41;100.00;101558.81;5048978;28;19928;-85
2022/01/30 03:03:45;;;;;;;;;;;7.60;99.90;;;5.45;100.00;101562.13;5050510;28;19931;-84
2022/01/30 03:06:12;;;;;;;;;;;7.60;99.90;;;5.49;100.00;101556.34;5045327;28;19947;-85
2022/01/30 03:08:39;;;;;;;;;;;7.60;99.90;;;5.48;100.00;101560.03;5065420;28;19958;-85
2022/01/30 03:11:07;;;;;;;;;;;7.60;99.90;;;5.44;100.00;101547.75;5057923;28;19929;-85
2022/01/30 03:13:35;;;;;;;;;;;7.60;99.90;;;5.49;100.00;101550.09;5048980;28;19925;-85
2022/01/30 03:16:03;;;;;;;;;;;7.60;99.90;;;5.53;100.00;101553.41;5048663;28;19924;-85
2022/01/30 03:18:32;;;;;;;;;;;7.60;99.90;;;5.63;100.00;101548.94;5048651;28;19928;-85
2022/01/30 03:21:02;;;;;;;;;;;7.70;99.90;;;5.67;100.00;101563.91;5048464;28;19998;-84
2022/01/30 03:23:30;;;;;;;;;;;7.60;99.90;;;5.63;100.00;101560.59;5053941;28;19936;-84
2022/01/30 03:25:59;;;;;;;;;;;7.60;99.90;;;5.71;100.00;101556.41;5052195;28;19925;-84
2022/01/30 03:28:52;;;;;;;;;;;7.60;99.90;;;5.68;100.00;101557.53;5048164;28;19936;-85
2022/01/30 03:31:25;;;;;;;;;;;7.70;99.90;;;5.70;100.00;101555.56;5048563;28;20278;-85
2022/01/30 03:33:52;;;;;;;;;;;7.70;99.90;;;5.73;99.44;101551.75;5048649;28;20442;-85
2022/01/30 03:36:28;;;;;;;;;;;7.70;99.90;;;5.65;99.60;101555.09;5069766;28;20024;-85
2022/01/30 03:38:55;;;;;;;;;;;7.70;99.90;;;5.69;99.62;101559.25;5048169;28;19948;-85
2022/01/30 03:41:22;;;;;;;;;;;7.70;99.90;;;5.71;99.75;101565.38;5048239;28;19928;-85
2022/01/30 03:43:50;;;;;;;;;;;7.60;99.90;;;5.70;99.09;101563.66;5048554;28;20331;-85
2022/01/30 03:46:19;;;;;;;;;;;7.70;99.90;;;5.65;99.30;101566.75;5048289;28;19932;-84
2022/01/30 03:48:46;;;;;;;;;;;7.70;99.90;;;5.66;99.31;101568.47;5081639;28;19925;-85
2022/01/30 03:51:24;;;;;;;;;;;7.70;99.90;;;5.71;98.82;101570.78;5048171;28;20347;-85
2022/01/30 03:53:52;;;;;;;;;;;7.70;99.90;;;5.68;98.78;101576.44;5047501;28;20427;-85
2022/01/30 03:56:19;;;;;;;;;;;7.70;99.90;;;5.72;98.40;101569.81;5053604;28;19929;-84
2022/01/30 03:58:48;;;;;;;;;;;7.70;99.90;;;5.62;98.12;101566.16;5067976;28;19931;-85
2022/01/30 04:01:18;;;;;;;;;;;7.70;99.90;;;5.54;98.59;101571.31;5044762;28;20054;-85
2022/01/30 04:03:45;;;;;;;;;;;7.70;99.90;;;5.50;98.88;101568.00;5028424;28;19929;-85
2022/01/30 04:06:13;;;;;;;;;;;7.60;99.90;;;5.39;98.19;101571.59;5040266;28;19975;-85
2022/01/30 04:08:41;;;;;;;;;;;7.60;99.90;;;5.36;98.18;101570.97;5047387;28;19929;-85
2022/01/30 04:11:36;;;;;;;;;;;7.50;99.90;;;5.27;98.54;101575.28;5035679;28;19947;-85
2022/01/30 04:14:13;;;;;;;;;;;7.50;99.90;;;5.33;98.64;101580.19;5052666;28;19928;-85
2022/01/30 04:17:01;;;;;;;;;;;7.50;99.90;;;5.41;97.79;101579.56;5049494;28;20274;-85
2022/01/30 04:19:44;;;;;;;;;;;7.40;99.90;;;5.36;98.34;101588.03;5047500;28;19928;-84
2022/01/30 04:22:29;;;;;;;;;;;7.40;99.90;;;5.36;97.92;101579.09;5048407;28;19924;-85
2022/01/30 04:25:14;;;;;;;;;;;7.40;99.90;;;5.23;97.95;101588.16;5049685;28;19940;-85
2022/01/30 04:28:01;;;;;;;;;;;7.40;99.90;;;5.19;98.88;101592.09;5049925;28;19935;-85
2022/01/30 04:30:36;;;;;;;;;;;7.40;99.90;;;5.18;98.69;101595.78;5059188;28;19975;-85
2022/01/30 04:33:25;;;;;;;;;;;7.40;99.90;;;5.17;99.13;101606.69;5067914;28;20019;-85
2022/01/30 04:36:31;;;;;;;;;;;7.30;99.90;;;5.21;99.27;101597.38;4998233;28;19928;-84
2022/01/30 04:39:12;;;;;;;;;;;7.30;99.90;;;5.13;99.41;101597.97;5027497;28;19960;-84
2022/01/30 04:42:03;;;;;;;;;;;7.30;99.90;;;5.22;100.00;101618.84;5027919;28;19929;-85
2022/01/30 04:54:46;;;;;;;;;;;7.30;99.90;;;5.18;99.95;101619.19;5047701;28;19963;-84
2022/01/30 04:57:37;;;;;;;;;;;7.30;99.90;;;5.18;100.00;101620.06;5027981;28;19936;-85
2022/01/30 05:00:27;;;;;;;;;;;7.30;99.90;;;5.19;100.00;101623.63;5048163;28;20024;-85
2022/01/30 05:03:29;;;;;;;;;;;7.30;99.90;;;5.23;100.00;101631.34;5027845;28;19936;-84
2022/01/30 05:06:19;;;;;;;;;;;7.30;99.90;;;5.26;100.00;101631.09;5043595;28;19936;-85
2022/01/30 05:09:15;;;;;;;;;;;7.30;99.90;;;5.34;99.72;101632.34;5035177;28;20410;-85
2022/01/30 05:12:14;;;;;;;;;;;7.30;99.90;;;5.34;99.55;101637.72;5030080;28;19940;-85
2022/01/30 05:15:01;;;;;;;;;;;7.30;99.90;;;5.33;99.54;101638.69;5047260;28;19936;-84
2022/01/30 05:17:33;;;;;;;;;;;7.30;99.90;;;5.30;99.33;101637.13;5050612;28;20030;-85
2022/01/30 05:20:29;;;;;;;;;;;7.30;99.90;;;5.27;98.84;101632.84;5027248;28;20296;-85
2022/01/30 05:23:08;;;;;;;;;;;7.30;99.90;;;5.24;98.21;101637.59;5071121;28;19924;-85
2022/01/30 05:25:38;;;;;;;;;;;7.30;99.90;;;5.27;99.03;101629.25;5062396;28;20027;-85
2022/01/30 05:28:12;;;;;;;;;;;7.30;99.90;;;5.28;98.52;101636.38;5050688;28;19974;-85
2022/01/30 05:30:44;;;;;;;;;;;7.30;99.90;;;5.29;98.47;101632.69;5050762;28;19932;-85
2022/01/30 05:33:40;;;;;;;;;;;7.30;99.90;;;5.37;98.19;101634.75;4995421;28;20004;-84
2022/01/30 05:36:26;;;;;;;;;;;7.30;99.90;;;5.22;98.16;101644.97;5056030;28;19936;-85
2022/01/30 05:39:14;;;;;;;;;;;7.30;99.90;;;5.18;98.98;101648.88;5032360;28;19970;-85
2022/01/30 05:42:02;;;;;;;;;;;7.30;99.90;;;5.11;99.11;101648.50;5040222;28;19928;-84
2022/01/30 05:44:47;;;;;;;;;;;7.30;99.90;;;5.19;99.41;101651.44;5052346;28;19940;-85
2022/01/30 05:47:45;;;;;;;;;;;7.30;99.90;;;5.25;98.70;101660.91;5037722;28;19928;-85
2022/01/30 05:50:23;;;;;;;;;;;7.30;99.90;;;5.15;99.93;101649.13;5047429;28;19925;-85
2022/01/30 05:53:09;;;;;;;;;;;7.30;99.90;;;5.16;99.62;101653.53;5055309;28;19952;-85
2022/01/30 05:55:42;;;;;;;;;;;7.30;99.90;;;5.21;99.13;101664.84;5050115;28;19956;-85
2022/01/30 05:58:10;;;;;;;;;;;7.30;99.90;;;5.29;99.44;101671.34;5050289;28;20065;-85
2022/01/30 06:00:51;;;;;;;;;;;7.30;99.90;;;5.17;98.81;101680.41;5030375;28;20182;-84
2022/01/30 06:03:18;;;;;;;;;;;7.30;99.90;;;5.20;99.84;101673.91;5050114;28;20032;-84
2022/01/30 06:05:46;;;;;;;;;;;7.30;99.90;;;5.20;99.91;101687.41;5049872;28;20015;-84
2022/01/30 06:08:16;;;;;;;;;;;7.30;99.90;;;5.21;100.00;101681.03;5052780;28;19924;-85
2022/01/30 06:10:45;;;;;;;;;;;7.30;99.90;;;5.24;99.67;101692.44;5059475;28;19946;-85
2022/01/30 06:13:12;;;;;;;;;;;7.30;99.90;;;5.21;99.55;101695.38;5070200;28;19928;-84
2022/01/30 06:15:39;;;;;;;;;;;7.30;99.90;;;5.22;99.45;101698.94;5051739;28;19928;-84
2022/01/30 06:18:17;;;;;;;;;;;7.30;99.90;;;5.17;100.00;101701.13;5083453;28;19931;-85
2022/01/30 06:21:03;;;;;;;;;;;7.30;99.90;;;5.17;100.00;101706.53;5050822;28;19932;-85
2022/01/30 06:24:06;;;;;;;;;;;7.30;99.90;;;5.12;100.00;101703.31;4989243;28;19929;-85
2022/01/30 06:26:53;;;;;;;;;;;7.30;99.90;;;5.12;98.81;101708.72;5056953;28;19955;-84
2022/01/30 06:29:49;;;;;;;;;;;7.30;99.90;;;4.99;99.44;101707.00;5050256;28;19925;-84
2022/01/30 06:32:51;;;;;;;;;;;7.30;99.90;;;4.98;99.48;101701.72;5050791;28;19979;-85
2022/01/30 06:35:44;;;;;;;;;;;7.20;99.90;;;4.93;99.46;101715.56;5051113;28;20011;-85
2022/01/30 06:38:20;;;;;;;;;;;7.20;99.90;;;4.84;99.31;101711.72;5049133;28;20377;-85
2022/01/30 06:41:22;;;;;;;;;;;7.20;99.90;;;4.88;99.17;101709.66;4989272;28;19934;-85
2022/01/30 06:44:10;;;;;;;;;;;7.10;99.90;;;4.93;98.98;101715.56;5044020;28;20292;-85
2022/01/30 06:46:55;;;;;;;;;;;7.10;99.90;;;4.86;98.82;101719.72;5052289;28;19940;-86
2022/01/30 06:49:54;;;;;;;;;;;7.10;99.90;;;4.72;98.39;101728.84;5016119;28;19929;-85
2022/01/30 06:52:51;;;;;;;;;;;7.00;99.90;;;4.79;98.82;101729.25;5023020;28;19929;-85
2022/01/30 06:55:43;;;;;;;;;;;7.00;99.90;;;4.74;98.57;101737.69;5047664;28;19929;-85
2022/01/30 06:58:13;;;;;;;;;;;7.00;99.90;;;4.69;98.52;101750.66;5048428;28;20036;-85
2022/01/30 07:01:00;;;;;;;;;;;6.90;99.90;;;4.74;98.67;101744.91;5068004;22;20403;-84
2022/01/30 07:03:50;;;;;;;;;;;6.90;99.90;;;4.79;98.85;101753.50;5055350;28;19928;-84
2022/01/30 07:06:26;;;;;;;;;;;6.90;99.90;;;4.72;98.93;101750.41;5069106;28;20398;-83
2022/01/30 07:08:53;;;;;;;;;;;6.90;99.90;;;4.66;99.01;101754.44;5068767;28;19924;-84
2022/01/30 07:11:20;;;;;;;;;;;6.90;99.90;;;4.68;99.02;101749.81;5050909;28;19983;-90
2022/01/30 07:13:47;;;;;;;;;;;6.90;99.90;;;4.63;98.71;101751.97;5048832;28;20315;-88
2022/01/30 07:16:34;;;;;;;;;;;6.90;99.90;;;4.50;99.72;101753.88;5041943;28;20447;-91
2022/01/30 07:19:01;;;;;;;;;;;6.90;99.90;;;4.40;99.70;101760.91;5040052;28;20369;-87
2022/01/30 07:21:28;;;;;;;;;;;6.80;99.90;;;4.42;99.94;101765.22;5048985;28;20012;-89
2022/01/30 07:23:55;;;;;;;;;;;6.80;99.90;;;4.30;100.00;101758.91;5048656;28;19933;-85
2022/01/30 07:26:22;;;;;;;;;;;6.80;99.90;;;4.50;100.00;101770.03;5050204;28;20027;-84
2022/01/30 07:28:49;;;;;;;;;;;6.80;99.90;;;4.48;99.73;101775.53;5049556;28;19951;-85
2022/01/30 07:31:16;;;;;;;;;;;6.80;99.90;;;4.58;99.56;101775.72;5050036;28;19974;-84
2022/01/30 07:33:45;;;;;;;;;;;6.70;99.90;;;4.54;99.41;101766.13;5039964;28;19925;-85
2022/01/30 07:36:13;;;;;;;;;;;6.80;99.90;;;4.59;98.81;101760.41;5037061;28;20420;-86
2022/01/30 07:38:40;;;;;;;;;;;6.70;99.90;;;4.55;99.12;101765.19;5034378;28;19960;-86
2022/01/30 07:41:08;;;;;;;;;;;6.80;99.90;;;4.50;98.89;101767.34;5039851;28;19929;-87
2022/01/30 07:43:35;;;;;;;;;;;6.80;99.90;;;4.43;99.04;101776.84;5033593;28;19935;-85
2022/01/30 07:46:04;;;;;;;;;;;6.70;99.90;;;4.37;99.33;101780.00;5048406;28;19925;-85
2022/01/30 07:48:32;;;;;;;;;;;6.70;99.90;;;4.42;99.50;101780.53;5046968;28;19933;-86
2022/01/30 07:51:00;;;;;;;;;;;6.70;99.90;;;4.49;99.29;101779.09;5037730;28;20453;-85
2022/01/30 07:53:27;;;;;;;;;;;6.70;99.90;;;4.41;99.20;101789.59;5040083;28;19976;-84
2022/01/30 07:55:54;;;;;;;;;;;6.70;99.90;;;4.50;99.54;101783.53;5049781;28;20373;-86
2022/01/30 07:58:21;;;;;;;;;;;6.70;99.90;;;4.49;99.19;101800.66;5049387;28;20044;-85
2022/01/30 08:00:49;;;;;;;;;;;6.70;99.90;;;4.48;98.77;101812.44;5049591;28;19975;-85
2022/01/30 08:03:16;;;;;;;;;;;6.70;99.90;;;4.55;98.89;101819.09;5048917;28;20027;-84
2022/01/30 08:05:47;;;;;;;;;;;6.90;99.90;;;4.61;98.94;101818.63;5048179;28;19928;-84
2022/01/30 08:08:15;;;;;;;;;;;6.70;99.90;;;4.67;98.98;101810.09;5039907;28;20003;-85
2022/01/30 08:10:42;;;;;;;;;;;6.80;99.90;;;4.71;99.46;101813.41;5046757;28;20304;-87
2022/01/30 08:13:09;;;;;;;;;;;6.80;99.90;;;4.83;99.11;101823.28;5049163;28;19932;-85
2022/01/30 08:15:37;;;;;;;;;;;6.90;99.90;;;4.89;99.00;101830.94;5049426;28;20759;-86
2022/01/30 08:18:04;;;;;;;;;;;6.90;99.90;;;4.96;98.67;101827.75;5049076;28;20019;-86
2022/01/30 08:20:31;;;;;;;;;;;6.90;99.90;;;4.97;98.83;101826.78;5049046;28;19943;-85
2022/01/30 08:23:00;;;;;;;;;;;7.00;99.90;;;5.04;98.41;101830.72;5046687;28;20476;-90
2022/01/30 08:25:28;;;;;;;;;;;7.00;99.90;;;5.11;98.21;101834.69;5046824;28;20016;-89
2022/01/30 08:27:55;;;;;;;;;;;7.00;99.90;;;5.14;97.64;101834.47;5033337;28;19929;-88
2022/01/30 08:30:22;;;;;;;;;;;7.10;99.90;;;5.15;97.19;101828.09;5049108;28;19929;-87
2022/01/30 08:36:27;;;;;;;;;;;7.10;99.90;;;5.16;97.34;101840.63;4985523;28;19937;-89
2022/01/30 08:38:57;;;;;;;;;;;7.10;99.90;;;5.25;97.59;101842.63;4977928;28;20037;-87
2022/01/30 08:41:27;;;;;;;;;;;7.20;99.90;;;5.27;97.63;101837.06;4967990;28;20020;-88
2022/01/30 08:43:57;;;;;;;;;;;7.20;99.90;;;5.29;97.48;101835.13;4969645;28;19938;-90
2022/01/30 08:46:26;;;;;;;;;;;7.20;99.90;;;5.38;97.23;101837.13;4967290;28;19969;-88
2022/01/30 08:48:57;;;;;;;;;;;7.20;99.90;;;5.44;96.83;101838.47;4968290;28;20387;-88
2022/01/30 08:51:25;;;;;;;;;;;7.30;99.90;;;5.38;97.40;101829.00;4969405;28;19961;-88
2022/01/30 08:53:52;;;;;;;;;;;7.30;99.90;;;5.41;97.18;101826.09;4971835;28;19937;-89
2022/01/30 08:56:22;;;;;;;;;;;7.30;99.90;;;5.44;97.49;101827.69;4955723;28;19926;-90
2022/01/30 08:58:50;;;;;;;;;;;7.40;99.90;;;5.42;96.69;101833.19;4952687;28;19930;-89
2022/01/30 09:01:18;;;;;;;;;;;7.40;99.90;;;5.35;96.80;101823.88;4948385;28;20122;-89
2022/01/30 09:03:50;;;;;;;;;;;7.40;99.90;;;5.49;96.76;101834.44;4961808;28;19972;-89
2022/01/30 09:06:17;;;;;;;;;;;7.40;99.90;;;5.49;96.28;101820.94;4991402;28;19930;-90
2022/01/30 09:08:47;;;;;;;;;;;7.40;99.90;;;5.46;97.07;101814.91;4972714;28;20382;-90
2022/01/30 09:11:19;;;;;;;;;;;7.50;99.90;;;5.54;96.45;101827.81;4972569;28;20380;-90
2022/01/30 09:13:46;;;;;;;;;;;7.50;99.90;;;5.57;96.29;101827.59;5028972;28;20408;-88
2022/01/30 09:16:15;;;;;;;;;;;7.50;99.90;;;5.67;96.42;101825.88;5037649;28;19929;-90
2022/01/30 09:18:45;;;;;;;;;;;7.60;99.90;;;5.71;96.06;101821.94;5043416;28;19964;-90
2022/01/30 09:21:13;;;;;;;;;;;7.60;99.90;;;5.83;96.02;101815.59;5044652;28;19929;-91
2022/01/30 09:23:40;;;;;;;;;;;7.90;99.90;;;5.71;96.17;101808.44;5052724;28;19925;-90
2022/01/30 09:26:14;;;;;;;;;;;7.70;99.90;;;5.79;95.72;101807.88;5052494;28;19925;-88
2022/01/30 09:28:44;;;;;;;;;;;7.70;99.90;;;5.90;96.09;101807.84;5042671;28;20019;-86
2022/01/30 09:31:15;;;;;;;;;;;7.80;99.90;;;6.01;95.18;101810.59;5040029;28;19925;-89
2022/01/30 09:33:53;;;;;;;;;;;7.80;99.90;;;5.95;93.81;101804.81;5040486;28;19929;-89
2022/01/30 09:36:27;;;;;;;;;;;7.80;99.80;;;5.87;94.47;101817.06;5031160;28;19925;-89
2022/01/30 09:44:15;;;;;;;;;;;7.80;99.60;;;5.82;93.64;101805.75;5047058;28;19932;-89
2022/01/30 09:46:44;;;;;;;;;;;7.80;99.20;;;5.85;93.59;101789.31;5040575;28;19971;-89
2022/01/30 09:49:33;;;;;;;;;;;7.80;99.30;;;5.92;92.79;101773.50;5045171;28;20024;-88
2022/01/30 09:52:00;;;;;;;;;;;7.80;98.60;;;6.02;92.27;101792.56;5043096;28;20074;-88
2022/01/30 09:54:27;;;;;;;;;;;7.90;98.10;;;5.99;92.37;101798.19;5043342;28;20032;-89
2022/01/30 09:56:57;;;;;;;;;;;7.80;98.80;;;6.02;92.87;101795.25;5045330;28;19929;-88
2022/01/30 09:59:26;;;;;;;;;;;8.10;98.70;;;6.09;92.15;101807.28;5054748;28;19956;-88
2022/01/30 10:01:55;;;;;;;;;;;7.80;98.20;;;6.01;91.25;101818.69;5050540;28;19928;-89
2022/01/30 10:04:23;;;;;;;;;;;7.80;97.60;;;5.96;90.93;101830.84;5049044;28;20361;-88
2022/01/30 10:07:00;;;;;;;;;;;7.80;97.60;;;5.98;92.03;101837.03;5047489;28;19925;-89
2022/01/30 10:09:31;;;;;;;;;;;7.80;98.50;;;5.96;91.96;101833.56;5038697;28;20304;-89
2022/01/30 10:12:15;;;;;;;;;;;7.80;98.30;;;6.02;91.61;101838.50;5051129;28;19939;-88
2022/01/30 10:14:57;;;;;;;;;;;7.90;98.50;;;6.08;91.16;101832.59;5034191;28;20036;-88
2022/01/30 10:17:51;;;;;;;;;;;7.90;98.10;;;6.04;90.71;101823.88;5061684;28;20393;-89
2022/01/30 10:20:20;;;;;;;;;;;7.90;98.20;;;6.11;90.68;101836.88;5041262;28;20035;-87
2022/01/30 10:22:52;;;;;;;;;;;7.90;97.90;;;6.18;88.72;101844.38;5036290;28;19932;-89
2022/01/30 10:25:21;;;;;;;;;;;7.90;96.70;;;6.11;89.55;101843.16;5045969;28;19929;-88
2022/01/30 10:27:49;;;;;;;;;;;8.00;97.20;;;6.16;88.73;101834.69;5035979;28;19937;-88
2022/01/30 10:30:23;;;;;;;;;;;7.90;96.30;;;6.18;87.74;101843.53;5031377;28;19929;-89
2022/01/30 10:32:59;;;;;;;;;;;7.90;96.40;;;6.23;86.94;101846.72;5031893;28;19933;-88
2022/01/30 10:35:52;;;;;;;;;;;8.00;96.40;;;6.28;87.65;101849.91;5064802;28;20019;-88
2022/01/30 10:38:22;;;;;;;;;;;8.00;96.20;;;6.30;86.41;101833.56;5044712;28;19933;-88
2022/01/30 10:40:58;;;;;;;;;;;8.00;96.10;;;6.29;83.49;101834.56;5047337;28;20011;-88
2022/01/30 10:43:51;;;;;;;;;;;8.00;94.50;;;6.31;84.25;101824.47;5049262;28;20012;-88
2022/01/30 10:46:21;;;;;;;;;;;8.00;94.30;;;6.31;83.19;101828.03;5043024;28;20370;-89
2022/01/30 10:48:55;;;;;;;;;;;8.00;93.40;;;6.36;83.20;101835.75;5040647;28;19983;-88
2022/01/30 10:51:31;;;;;;;;;;;8.10;94.30;;;6.41;84.74;101834.41;5046486;28;19929;-89
2022/01/30 10:53:59;;;;;;;;;;;8.10;94.70;;;6.44;83.74;101841.44;5033378;28;20423;-89
2022/01/30 10:56:31;;;;;;;;;;;8.10;94.00;;;6.40;82.25;101834.56;5030788;28;19925;-88
2022/01/30 11:01:42;;;;;;;;;;;8.10;92.70;;;6.38;81.58;101831.13;5048039;26;19939;-88
2022/01/30 11:04:34;;;;;;;;;;;8.10;92.10;;;6.38;81.78;101831.13;5052191;28;19929;-88
2022/01/30 11:07:08;;;;;;;;;;;8.20;92.80;;;6.44;80.82;101849.53;5050689;28;19947;-90
2022/01/30 11:09:42;;;;;;;;;;;8.20;92.30;;;6.43;80.00;101847.81;5062528;28;19929;-88
2022/01/30 11:12:13;;;;;;;;;;;8.10;92.00;;;6.49;81.07;101852.69;5049260;28;19932;-89
2022/01/30 11:14:53;;;;;;;;;;;8.20;91.70;;;6.43;80.66;101845.09;5050039;28;19949;-88
2022/01/30 11:17:38;;;;;;;;;;;8.30;92.10;;;6.42;79.71;101835.28;5042060;28;19928;-89
2022/01/30 11:20:07;;;;;;;;;;;8.20;91.50;;;6.49;80.17;101858.13;5042264;28;20026;-88
2022/01/30 11:22:37;;;;;;;;;;;8.20;91.10;;;6.45;78.51;101846.72;5048777;28;19982;-82
2022/01/30 11:25:06;;;;;;;;;;;8.20;91.30;;;6.50;80.83;101837.38;5048874;28;19933;-91
2022/01/30 11:27:34;;;;;;;;;;;8.10;91.60;;;6.57;81.74;101839.44;5030796;28;20008;-90
2022/01/30 11:30:02;;;;;;;;;;;8.20;92.50;;;6.62;81.63;101837.19;5035342;28;20394;-89
2022/01/30 11:32:34;;;;;;;;;;;8.20;92.30;;;6.65;79.85;101836.94;5050049;28;20018;-89
2022/01/30 11:35:01;;;;;;;;;;;8.30;92.20;;;6.72;79.05;101836.44;5029851;28;19925;-90
2022/01/30 11:37:30;;;;;;;;;;;8.40;91.00;;;6.76;78.48;101833.38;5041365;28;19929;-91
2022/01/30 11:40:00;;;;;;;;;;;8.40;90.80;;;6.79;80.07;101838.50;5048188;28;19956;-89
2022/01/30 11:42:40;;;;;;;;;;;8.40;91.60;;;6.79;77.05;101837.66;5049126;28;19929;-90
2022/01/30 11:45:20;;;;;;;;;;;8.40;90.00;;;6.77;77.96;101834.22;5048570;28;19931;-90
2022/01/30 11:47:49;;;;;;;;;;;8.40;88.90;;;6.78;76.75;101825.13;5039584;28;19929;-92
2022/01/30 11:50:20;;;;;;;;;;;8.40;89.40;;;6.81;76.51;101830.25;5029835;28;19929;-90
2022/01/30 11:52:56;;;;;;;;;;;8.40;89.60;;;6.78;77.96;101825.97;5042815;28;20048;-90
2022/01/30 11:55:56;;;;;;;;;;;8.40;90.30;;;6.78;78.41;101808.91;5049986;28;20015;-90
2022/01/30 11:58:45;;;;;;;;;;;8.40;90.30;;;6.82;79.44;101797.69;4970713;28;19930;-90
2022/01/30 12:01:34;;;;;;;;;;;8.40;90.20;;;6.89;78.87;101792.59;5035612;28;20349;-91
2022/01/30 12:04:15;;;;;;;;;;;8.50;90.30;;;6.99;77.51;101790.84;5043998;28;19960;-91
2022/01/30 12:06:45;;;;;;;;;;;8.50;90.90;;;7.03;77.79;101792.28;5042893;28;19924;-90
2022/01/30 12:09:30;;;;;;;;;;;8.60;89.90;;;6.98;76.14;101794.53;5039976;28;19932;-91
2022/01/30 12:12:05;;;;;;;;;;;8.60;89.80;;;6.98;75.91;101783.69;5047845;28;20377;-90
2022/01/30 12:14:56;;;;;;;;;;;8.60;88.30;;;7.05;76.03;101787.63;5047674;28;19931;-90
2022/01/30 12:17:57;;;;;;;;;;;8.60;88.80;;;7.05;76.39;101784.91;5047852;28;20690;-90
2022/01/30 12:20:25;;;;;;;;;;;8.60;88.30;;;7.10;76.42;101798.06;5049586;28;20035;-90
2022/01/30 12:22:53;;;;;;;;;;;8.60;87.80;;;7.14;76.21;101793.22;5043556;28;19931;-90
2022/01/30 12:25:29;;;;;;;;;;;8.60;88.60;;;7.13;76.48;101796.94;5047995;28;19960;-89
2022/01/30 12:28:01;;;;;;;;;;;8.70;88.10;;;7.13;75.76;101803.19;5052049;28;19928;-91
2022/01/30 12:30:37;;;;;;;;;;;8.70;87.80;;;7.12;75.91;101806.03;5052143;28;20381;-90
2022/01/30 12:33:46;;;;;;;;;;;8.70;88.10;;;7.16;75.84;101807.47;5051649;28;19933;-90
2022/01/30 12:36:22;;;;;;;;;;;8.70;88.40;;;7.16;74.14;101812.91;5052069;28;20385;-90
2022/01/30 12:39:06;;;;;;;;;;;8.70;87.90;;;7.08;74.52;101804.56;5053415;28;19976;-88